sensor_id;sensor_type;location;lat;lon;timestamp;temperature;humidity
41220;DHT22;26951;47.338;9.196;2023-08-17T00:00:35;17.90;54.10
41220;DHT22;26951;47.338;9.196;2023-08-17T00:03:19;17.90;54.70
41220;DHT22;26951;47.338;9.196;2023-08-17T00:06:03;17.80;54.80
41220;DHT22;26951;47.338;9.196;2023-08-17T00:08:47;17.80;54.20
41220;DHT22;26951;47.338;9.196;2023-08-17T00:11:32;17.70;53.20
41220;DHT22;26951;47.338;9.196;2023-08-17T00:14:16;17.70;53.10
41220;DHT22;26951;47.338;9.196;2023-08-17T00:17:00;17.70;52.60
41220;DHT22;26951;47.338;9.196;2023-08-17T00:19:44;17.70;52.10
41220;DHT22;26951;47.338;9.196;2023-08-17T00:22:28;17.60;51.90
41220;DHT22;26951;47.338;9.196;2023-08-17T00:25:12;17.60;51.80
41220;DHT22;26951;47.338;9.196;2023-08-17T00:27:56;17.60;51.90
41220;DHT22;26951;47.338;9.196;2023-08-17T00:30:41;17.60;51.70
41220;DHT22;26951;47.338;9.196;2023-08-17T00:33:25;17.50;51.70
41220;DHT22;26951;47.338;9.196;2023-08-17T00:36:09;17.40;50.40
41220;DHT22;26951;47.338;9.196;2023-08-17T00:38:53;17.40;50.50
41220;DHT22;26951;47.338;9.196;2023-08-17T00:41:37;17.40;51.50
41220;DHT22;26951;47.338;9.196;2023-08-17T00:44:21;17.30;51.90
41220;DHT22;26951;47.338;9.196;2023-08-17T00:47:05;17.30;51.50
41220;DHT22;26951;47.338;9.196;2023-08-17T00:49:50;17.30;51.40
41220;DHT22;26951;47.338;9.196;2023-08-17T00:52:34;17.10;50.90
41220;DHT22;26951;47.338;9.196;2023-08-17T00:55:18;17.10;50.00
41220;DHT22;26951;47.338;9.196;2023-08-17T00:58:02;17.10;50.10
41220;DHT22;26951;47.338;9.196;2023-08-17T01:04:15;17.10;51.40
41220;DHT22;26951;47.338;9.196;2023-08-17T01:06:59;17.00;50.30
41220;DHT22;26951;47.338;9.196;2023-08-17T01:09:44;17.00;51.60
41220;DHT22;26951;47.338;9.196;2023-08-17T01:12:31;17.00;52.00
41220;DHT22;26951;47.338;9.196;2023-08-17T01:15:21;17.00;52.30
41220;DHT22;26951;47.338;9.196;2023-08-17T01:18:29;17.00;51.80
41220;DHT22;26951;47.338;9.196;2023-08-17T01:21:11;17.00;52.40
41220;DHT22;26951;47.338;9.196;2023-08-17T01:23:57;16.90;51.70
41220;DHT22;26951;47.338;9.196;2023-08-17T01:26:43;16.90;51.50
41220;DHT22;26951;47.338;9.196;2023-08-17T01:29:27;16.80;53.20
41220;DHT22;26951;47.338;9.196;2023-08-17T01:35:14;16.80;53.00
41220;DHT22;26951;47.338;9.196;2023-08-17T01:38:02;16.70;52.30
41220;DHT22;26951;47.338;9.196;2023-08-17T01:40:49;16.70;52.50
41220;DHT22;26951;47.338;9.196;2023-08-17T01:43:34;16.60;52.00
41220;DHT22;26951;47.338;9.196;2023-08-17T01:46:19;16.60;52.20
41220;DHT22;26951;47.338;9.196;2023-08-17T01:49:03;16.60;52.30
41220;DHT22;26951;47.338;9.196;2023-08-17T01:51:47;16.60;52.60
41220;DHT22;26951;47.338;9.196;2023-08-17T01:54:31;16.60;53.30
41220;DHT22;26951;47.338;9.196;2023-08-17T01:57:15;16.50;53.70
41220;DHT22;26951;47.338;9.196;2023-08-17T02:00:00;16.50;53.30
41220;DHT22;26951;47.338;9.196;2023-08-17T02:02:44;16.50;52.70
41220;DHT22;26951;47.338;9.196;2023-08-17T02:05:28;16.50;52.70
41220;DHT22;26951;47.338;9.196;2023-08-17T02:08:12;16.50;53.80
41220;DHT22;26951;47.338;9.196;2023-08-17T02:10:58;16.50;54.30
41220;DHT22;26951;47.338;9.196;2023-08-17T02:13:42;16.40;54.60
41220;DHT22;26951;47.338;9.196;2023-08-17T02:16:26;16.40;54.80
41220;DHT22;26951;47.338;9.196;2023-08-17T02:19:10;16.40;54.30
41220;DHT22;26951;47.338;9.196;2023-08-17T02:21:54;16.40;54.70
41220;DHT22;26951;47.338;9.196;2023-08-17T02:24:39;16.40;54.80
41220;DHT22;26951;47.338;9.196;2023-08-17T02:27:23;16.40;55.60
41220;DHT22;26951;47.338;9.196;2023-08-17T02:30:07;16.40;55.90
41220;DHT22;26951;47.338;9.196;2023-08-17T02:32:51;16.30;55.30
41220;DHT22;26951;47.338;9.196;2023-08-17T02:35:36;16.30;55.10
41220;DHT22;26951;47.338;9.196;2023-08-17T02:38:20;16.30;56.00
41220;DHT22;26951;47.338;9.196;2023-08-17T02:41:04;16.30;56.20
41220;DHT22;26951;47.338;9.196;2023-08-17T02:43:48;16.30;56.00
41220;DHT22;26951;47.338;9.196;2023-08-17T02:46:32;16.30;55.90
41220;DHT22;26951;47.338;9.196;2023-08-17T02:49:17;16.20;55.20
41220;DHT22;26951;47.338;9.196;2023-08-17T02:52:01;16.20;55.30
41220;DHT22;26951;47.338;9.196;2023-08-17T02:54:45;16.20;55.80
41220;DHT22;26951;47.338;9.196;2023-08-17T02:57:29;16.20;56.40
41220;DHT22;26951;47.338;9.196;2023-08-17T03:00:13;16.20;56.30
41220;DHT22;26951;47.338;9.196;2023-08-17T03:02:57;16.10;56.80
41220;DHT22;26951;47.338;9.196;2023-08-17T03:05:41;16.20;56.40
41220;DHT22;26951;47.338;9.196;2023-08-17T03:08:25;16.10;56.40
41220;DHT22;26951;47.338;9.196;2023-08-17T03:11:09;16.10;56.10
41220;DHT22;26951;47.338;9.196;2023-08-17T03:13:54;16.10;56.40
41220;DHT22;26951;47.338;9.196;2023-08-17T03:16:43;16.10;56.10
41220;DHT22;26951;47.338;9.196;2023-08-17T03:19:27;16.10;56.20
41220;DHT22;26951;47.338;9.196;2023-08-17T03:22:11;16.10;56.20
41220;DHT22;26951;47.338;9.196;2023-08-17T03:24:56;16.20;56.30
41220;DHT22;26951;47.338;9.196;2023-08-17T03:27:40;16.20;56.00
41220;DHT22;26951;47.338;9.196;2023-08-17T03:30:24;16.20;56.50
41220;DHT22;26951;47.338;9.196;2023-08-17T03:33:08;16.20;56.90
41220;DHT22;26951;47.338;9.196;2023-08-17T03:35:53;16.20;56.40
41220;DHT22;26951;47.338;9.196;2023-08-17T03:38:37;16.20;56.80
41220;DHT22;26951;47.338;9.196;2023-08-17T03:41:23;16.20;56.30
41220;DHT22;26951;47.338;9.196;2023-08-17T03:44:07;16.20;56.40
41220;DHT22;26951;47.338;9.196;2023-08-17T03:46:53;16.20;57.20
41220;DHT22;26951;47.338;9.196;2023-08-17T03:49:37;16.20;57.30
41220;DHT22;26951;47.338;9.196;2023-08-17T03:52:21;16.20;57.10
41220;DHT22;26951;47.338;9.196;2023-08-17T03:55:06;16.20;57.20
41220;DHT22;26951;47.338;9.196;2023-08-17T03:57:51;16.20;58.00
41220;DHT22;26951;47.338;9.196;2023-08-17T04:00:35;16.20;58.60
41220;DHT22;26951;47.338;9.196;2023-08-17T04:03:19;16.20;59.20
41220;DHT22;26951;47.338;9.196;2023-08-17T04:06:04;16.20;59.10
41220;DHT22;26951;47.338;9.196;2023-08-17T04:08:48;16.20;57.60
41220;DHT22;26951;47.338;9.196;2023-08-17T04:11:34;16.20;57.30
41220;DHT22;26951;47.338;9.196;2023-08-17T04:14:18;16.20;57.50
41220;DHT22;26951;47.338;9.196;2023-08-17T04:17:02;16.20;57.90
41220;DHT22;26951;47.338;9.196;2023-08-17T04:19:46;16.20;58.10
41220;DHT22;26951;47.338;9.196;2023-08-17T04:22:31;16.20;58.50
41220;DHT22;26951;47.338;9.196;2023-08-17T04:25:15;16.20;59.10
41220;DHT22;26951;47.338;9.196;2023-08-17T04:27:59;16.20;59.20
41220;DHT22;26951;47.338;9.196;2023-08-17T04:30:44;16.20;58.40
41220;DHT22;26951;47.338;9.196;2023-08-17T04:33:28;16.20;58.50
41220;DHT22;26951;47.338;9.196;2023-08-17T04:36:12;16.20;58.80
41220;DHT22;26951;47.338;9.196;2023-08-17T04:38:56;16.20;58.80
41220;DHT22;26951;47.338;9.196;2023-08-17T04:41:40;16.20;58.80
41220;DHT22;26951;47.338;9.196;2023-08-17T04:44:25;16.20;59.50
41220;DHT22;26951;47.338;9.196;2023-08-17T04:47:09;16.20;60.20
41220;DHT22;26951;47.338;9.196;2023-08-17T04:49:53;16.30;61.10
41220;DHT22;26951;47.338;9.196;2023-08-17T04:52:37;16.30;62.20
41220;DHT22;26951;47.338;9.196;2023-08-17T04:55:21;16.40;61.90
41220;DHT22;26951;47.338;9.196;2023-08-17T04:58:06;16.40;61.70
41220;DHT22;26951;47.338;9.196;2023-08-17T05:00:50;16.40;62.00
41220;DHT22;26951;47.338;9.196;2023-08-17T05:03:34;16.40;62.80
41220;DHT22;26951;47.338;9.196;2023-08-17T05:06:18;16.50;63.20
41220;DHT22;26951;47.338;9.196;2023-08-17T05:09:02;16.60;62.80
41220;DHT22;26951;47.338;9.196;2023-08-17T05:11:47;16.70;63.50
41220;DHT22;26951;47.338;9.196;2023-08-17T05:14:31;16.80;63.60
41220;DHT22;26951;47.338;9.196;2023-08-17T05:17:15;16.80;63.60
41220;DHT22;26951;47.338;9.196;2023-08-17T05:19:59;16.90;64.00
41220;DHT22;26951;47.338;9.196;2023-08-17T05:22:43;16.90;64.00
41220;DHT22;26951;47.338;9.196;2023-08-17T05:25:28;17.00;64.40
41220;DHT22;26951;47.338;9.196;2023-08-17T05:28:13;17.10;64.30
41220;DHT22;26951;47.338;9.196;2023-08-17T05:31:02;17.20;65.10
41220;DHT22;26951;47.338;9.196;2023-08-17T05:33:46;17.30;65.60
41220;DHT22;26951;47.338;9.196;2023-08-17T05:36:30;17.30;65.30
41220;DHT22;26951;47.338;9.196;2023-08-17T05:39:14;17.40;65.70
41220;DHT22;26951;47.338;9.196;2023-08-17T05:41:59;17.50;65.40
41220;DHT22;26951;47.338;9.196;2023-08-17T05:44:43;17.50;65.10
41220;DHT22;26951;47.338;9.196;2023-08-17T05:47:27;17.60;64.20
41220;DHT22;26951;47.338;9.196;2023-08-17T05:50:11;17.70;65.10
41220;DHT22;26951;47.338;9.196;2023-08-17T05:52:55;17.70;64.90
41220;DHT22;26951;47.338;9.196;2023-08-17T05:55:39;17.80;65.10
41220;DHT22;26951;47.338;9.196;2023-08-17T05:58:23;17.80;64.90
41220;DHT22;26951;47.338;9.196;2023-08-17T06:01:09;17.90;65.20
41220;DHT22;26951;47.338;9.196;2023-08-17T06:03:53;17.90;65.50
41220;DHT22;26951;47.338;9.196;2023-08-17T06:06:37;18.00;65.80
41220;DHT22;26951;47.338;9.196;2023-08-17T06:09:21;18.00;66.30
41220;DHT22;26951;47.338;9.196;2023-08-17T06:12:06;18.10;67.50
41220;DHT22;26951;47.338;9.196;2023-08-17T06:14:50;18.30;68.70
41220;DHT22;26951;47.338;9.196;2023-08-17T06:17:34;18.40;70.10
41220;DHT22;26951;47.338;9.196;2023-08-17T06:20:18;18.60;71.00
41220;DHT22;26951;47.338;9.196;2023-08-17T06:23:02;18.70;70.20
41220;DHT22;26951;47.338;9.196;2023-08-17T06:25:47;19.00;70.90
41220;DHT22;26951;47.338;9.196;2023-08-17T06:28:31;19.30;76.00
41220;DHT22;26951;47.338;9.196;2023-08-17T06:31:15;19.70;80.70
41220;DHT22;26951;47.338;9.196;2023-08-17T06:34:00;20.10;72.30
41220;DHT22;26951;47.338;9.196;2023-08-17T06:36:55;20.60;74.30
41220;DHT22;26951;47.338;9.196;2023-08-17T06:39:39;21.10;76.40
41220;DHT22;26951;47.338;9.196;2023-08-17T06:42:24;21.80;75.50
41220;DHT22;26951;47.338;9.196;2023-08-17T06:45:08;22.30;61.80
41220;DHT22;26951;47.338;9.196;2023-08-17T06:47:52;22.80;58.30
41220;DHT22;26951;47.338;9.196;2023-08-17T06:50:36;23.30;58.00
41220;DHT22;26951;47.338;9.196;2023-08-17T06:53:20;23.90;61.70
41220;DHT22;26951;47.338;9.196;2023-08-17T06:56:04;24.40;59.10
41220;DHT22;26951;47.338;9.196;2023-08-17T06:58:48;24.90;58.70
41220;DHT22;26951;47.338;9.196;2023-08-17T07:01:33;25.30;55.10
41220;DHT22;26951;47.338;9.196;2023-08-17T07:04:17;25.80;52.40
41220;DHT22;26951;47.338;9.196;2023-08-17T07:07:01;26.10;46.20
41220;DHT22;26951;47.338;9.196;2023-08-17T07:09:46;26.40;44.20
41220;DHT22;26951;47.338;9.196;2023-08-17T07:12:30;26.70;43.60
41220;DHT22;26951;47.338;9.196;2023-08-17T07:15:14;27.00;44.60
41220;DHT22;26951;47.338;9.196;2023-08-17T07:17:59;27.30;42.60
41220;DHT22;26951;47.338;9.196;2023-08-17T07:20:43;27.50;41.50
41220;DHT22;26951;47.338;9.196;2023-08-17T07:23:27;27.80;42.90
41220;DHT22;26951;47.338;9.196;2023-08-17T07:26:11;28.00;38.00
41220;DHT22;26951;47.338;9.196;2023-08-17T07:28:56;28.20;39.40
41220;DHT22;26951;47.338;9.196;2023-08-17T07:31:40;28.40;38.10
41220;DHT22;26951;47.338;9.196;2023-08-17T07:34:24;28.50;39.80
41220;DHT22;26951;47.338;9.196;2023-08-17T07:37:08;28.60;39.10
41220;DHT22;26951;47.338;9.196;2023-08-17T07:39:52;28.60;38.60
41220;DHT22;26951;47.338;9.196;2023-08-17T07:42:36;28.60;37.00
41220;DHT22;26951;47.338;9.196;2023-08-17T07:45:21;28.40;36.20
41220;DHT22;26951;47.338;9.196;2023-08-17T07:48:05;28.30;37.70
41220;DHT22;26951;47.338;9.196;2023-08-17T07:50:50;28.30;40.90
41220;DHT22;26951;47.338;9.196;2023-08-17T07:53:34;28.40;33.50
41220;DHT22;26951;47.338;9.196;2023-08-17T07:56:18;28.60;34.50
41220;DHT22;26951;47.338;9.196;2023-08-17T07:59:02;28.70;33.60
41220;DHT22;26951;47.338;9.196;2023-08-17T08:01:47;28.80;33.00
41220;DHT22;26951;47.338;9.196;2023-08-17T08:04:31;29.00;32.70
41220;DHT22;26951;47.338;9.196;2023-08-17T08:07:15;29.10;33.10
41220;DHT22;26951;47.338;9.196;2023-08-17T08:09:59;29.10;33.90
41220;DHT22;26951;47.338;9.196;2023-08-17T08:12:43;29.20;32.70
41220;DHT22;26951;47.338;9.196;2023-08-17T08:15:27;29.20;32.50
41220;DHT22;26951;47.338;9.196;2023-08-17T08:18:11;29.40;32.00
41220;DHT22;26951;47.338;9.196;2023-08-17T08:20:56;29.40;31.60
41220;DHT22;26951;47.338;9.196;2023-08-17T08:23:40;29.40;32.80
41220;DHT22;26951;47.338;9.196;2023-08-17T08:26:24;29.40;32.20
41220;DHT22;26951;47.338;9.196;2023-08-17T08:29:08;29.40;34.10
41220;DHT22;26951;47.338;9.196;2023-08-17T08:31:53;29.40;34.60
41220;DHT22;26951;47.338;9.196;2023-08-17T08:34:37;29.50;34.20
41220;DHT22;26951;47.338;9.196;2023-08-17T08:37:21;29.80;33.80
41220;DHT22;26951;47.338;9.196;2023-08-17T08:40:05;29.90;34.50
41220;DHT22;26951;47.338;9.196;2023-08-17T08:42:55;29.90;33.50
41220;DHT22;26951;47.338;9.196;2023-08-17T08:45:38;30.10;34.10
41220;DHT22;26951;47.338;9.196;2023-08-17T08:48:26;30.40;34.80
41220;DHT22;26951;47.338;9.196;2023-08-17T08:51:10;30.50;31.60
41220;DHT22;26951;47.338;9.196;2023-08-17T08:54:00;30.80;31.50
41220;DHT22;26951;47.338;9.196;2023-08-17T08:56:45;31.10;33.00
41220;DHT22;26951;47.338;9.196;2023-08-17T08:59:30;31.20;30.30
41220;DHT22;26951;47.338;9.196;2023-08-17T09:02:15;31.10;32.20
41220;DHT22;26951;47.338;9.196;2023-08-17T09:04:59;30.90;32.70
41220;DHT22;26951;47.338;9.196;2023-08-17T09:07:44;30.90;31.80
41220;DHT22;26951;47.338;9.196;2023-08-17T09:10:29;30.70;32.60
41220;DHT22;26951;47.338;9.196;2023-08-17T09:13:13;30.60;32.30
41220;DHT22;26951;47.338;9.196;2023-08-17T09:15:57;30.40;32.10
41220;DHT22;26951;47.338;9.196;2023-08-17T09:18:42;30.30;33.00
41220;DHT22;26951;47.338;9.196;2023-08-17T09:21:30;30.20;35.10
41220;DHT22;26951;47.338;9.196;2023-08-17T09:24:15;30.20;33.90
41220;DHT22;26951;47.338;9.196;2023-08-17T09:26:58;30.00;35.90
41220;DHT22;26951;47.338;9.196;2023-08-17T09:29:44;30.10;36.20
41220;DHT22;26951;47.338;9.196;2023-08-17T09:32:32;30.20;38.50
41220;DHT22;26951;47.338;9.196;2023-08-17T09:35:17;30.40;37.30
41220;DHT22;26951;47.338;9.196;2023-08-17T09:38:01;30.40;36.10
41220;DHT22;26951;47.338;9.196;2023-08-17T09:40:46;30.40;35.10
41220;DHT22;26951;47.338;9.196;2023-08-17T09:43:30;30.40;35.40
41220;DHT22;26951;47.338;9.196;2023-08-17T09:46:17;30.40;34.80
41220;DHT22;26951;47.338;9.196;2023-08-17T09:49:02;30.60;35.10
41220;DHT22;26951;47.338;9.196;2023-08-17T09:51:48;30.70;36.60
41220;DHT22;26951;47.338;9.196;2023-08-17T09:54:32;30.90;35.50
41220;DHT22;26951;47.338;9.196;2023-08-17T09:57:16;31.10;35.00
41220;DHT22;26951;47.338;9.196;2023-08-17T10:00:00;31.20;36.60
41220;DHT22;26951;47.338;9.196;2023-08-17T10:02:45;31.30;33.80
41220;DHT22;26951;47.338;9.196;2023-08-17T10:05:30;31.30;30.70
41220;DHT22;26951;47.338;9.196;2023-08-17T10:08:17;31.20;30.40
41220;DHT22;26951;47.338;9.196;2023-08-17T10:11:02;31.30;31.10
41220;DHT22;26951;47.338;9.196;2023-08-17T10:13:52;31.30;31.80
41220;DHT22;26951;47.338;9.196;2023-08-17T10:16:40;31.50;29.50
41220;DHT22;26951;47.338;9.196;2023-08-17T10:19:37;31.50;31.70
41220;DHT22;26951;47.338;9.196;2023-08-17T10:22:31;31.50;32.60
41220;DHT22;26951;47.338;9.196;2023-08-17T10:25:17;31.50;31.10
41220;DHT22;26951;47.338;9.196;2023-08-17T10:28:01;31.50;30.30
41220;DHT22;26951;47.338;9.196;2023-08-17T10:30:47;31.40;31.50
41220;DHT22;26951;47.338;9.196;2023-08-17T10:33:32;31.30;29.50
41220;DHT22;26951;47.338;9.196;2023-08-17T10:36:16;31.20;31.40
41220;DHT22;26951;47.338;9.196;2023-08-17T10:42:03;30.80;29.10
41220;DHT22;26951;47.338;9.196;2023-08-17T10:44:47;30.70;30.80
41220;DHT22;26951;47.338;9.196;2023-08-17T10:47:32;30.60;30.40
41220;DHT22;26951;47.338;9.196;2023-08-17T10:50:23;30.20;30.40
41220;DHT22;26951;47.338;9.196;2023-08-17T10:53:10;29.90;30.40
41220;DHT22;26951;47.338;9.196;2023-08-17T10:55:57;29.40;31.40
41220;DHT22;26951;47.338;9.196;2023-08-17T10:58:44;29.10;32.60
41220;DHT22;26951;47.338;9.196;2023-08-17T11:01:32;29.00;32.50
41220;DHT22;26951;47.338;9.196;2023-08-17T11:04:17;28.90;32.00
41220;DHT22;26951;47.338;9.196;2023-08-17T11:07:02;28.90;33.00
41220;DHT22;26951;47.338;9.196;2023-08-17T11:09:47;28.90;33.80
41220;DHT22;26951;47.338;9.196;2023-08-17T11:12:31;28.80;31.60
41220;DHT22;26951;47.338;9.196;2023-08-17T11:15:15;28.60;31.00
41220;DHT22;26951;47.338;9.196;2023-08-17T11:18:00;28.50;31.20
41220;DHT22;26951;47.338;9.196;2023-08-17T11:20:44;28.40;31.30
41220;DHT22;26951;47.338;9.196;2023-08-17T11:23:29;28.20;31.60
41220;DHT22;26951;47.338;9.196;2023-08-17T11:26:17;28.20;29.70
41220;DHT22;26951;47.338;9.196;2023-08-17T11:29:01;28.10;30.20
41220;DHT22;26951;47.338;9.196;2023-08-17T11:31:46;28.00;33.00
41220;DHT22;26951;47.338;9.196;2023-08-17T11:34:33;28.00;31.20
41220;DHT22;26951;47.338;9.196;2023-08-17T11:37:20;27.90;33.20
41220;DHT22;26951;47.338;9.196;2023-08-17T11:40:04;27.70;34.20
41220;DHT22;26951;47.338;9.196;2023-08-17T11:42:49;27.50;33.50
41220;DHT22;26951;47.338;9.196;2023-08-17T11:45:33;27.40;34.80
41220;DHT22;26951;47.338;9.196;2023-08-17T11:48:20;27.20;33.90
41220;DHT22;26951;47.338;9.196;2023-08-17T11:51:04;27.20;34.40
41220;DHT22;26951;47.338;9.196;2023-08-17T11:53:49;27.10;37.10
41220;DHT22;26951;47.338;9.196;2023-08-17T11:56:33;27.10;36.80
41220;DHT22;26951;47.338;9.196;2023-08-17T11:59:18;26.90;36.90
41220;DHT22;26951;47.338;9.196;2023-08-17T12:02:03;26.80;37.40
41220;DHT22;26951;47.338;9.196;2023-08-17T12:04:47;26.70;37.40
41220;DHT22;26951;47.338;9.196;2023-08-17T12:07:31;26.60;36.40
41220;DHT22;26951;47.338;9.196;2023-08-17T12:10:17;26.60;37.60
41220;DHT22;26951;47.338;9.196;2023-08-17T12:13:01;26.50;38.40
41220;DHT22;26951;47.338;9.196;2023-08-17T12:15:45;26.50;37.90
41220;DHT22;26951;47.338;9.196;2023-08-17T12:18:32;26.40;38.50
41220;DHT22;26951;47.338;9.196;2023-08-17T12:21:15;26.40;39.20
41220;DHT22;26951;47.338;9.196;2023-08-17T12:24:02;26.30;37.80
41220;DHT22;26951;47.338;9.196;2023-08-17T12:26:48;26.30;38.20
41220;DHT22;26951;47.338;9.196;2023-08-17T12:29:32;26.20;38.30
41220;DHT22;26951;47.338;9.196;2023-08-17T12:32:17;26.10;38.50
41220;DHT22;26951;47.338;9.196;2023-08-17T12:35:01;26.10;39.50
41220;DHT22;26951;47.338;9.196;2023-08-17T12:37:45;26.00;38.60
41220;DHT22;26951;47.338;9.196;2023-08-17T12:40:29;26.00;40.10
41220;DHT22;26951;47.338;9.196;2023-08-17T12:43:14;26.00;38.80
41220;DHT22;26951;47.338;9.196;2023-08-17T12:45:58;25.90;38.90
41220;DHT22;26951;47.338;9.196;2023-08-17T12:48:42;25.90;39.30
41220;DHT22;26951;47.338;9.196;2023-08-17T12:51:26;25.80;39.30
41220;DHT22;26951;47.338;9.196;2023-08-17T12:54:10;25.70;39.40
41220;DHT22;26951;47.338;9.196;2023-08-17T12:56:54;25.50;41.20
41220;DHT22;26951;47.338;9.196;2023-08-17T12:59:38;25.50;41.10
41220;DHT22;26951;47.338;9.196;2023-08-17T13:02:22;25.40;42.70
41220;DHT22;26951;47.338;9.196;2023-08-17T13:05:07;25.30;43.40
41220;DHT22;26951;47.338;9.196;2023-08-17T13:07:51;25.10;42.70
41220;DHT22;26951;47.338;9.196;2023-08-17T13:10:35;25.10;43.00
41220;DHT22;26951;47.338;9.196;2023-08-17T13:13:20;25.10;41.60
41220;DHT22;26951;47.338;9.196;2023-08-17T13:16:04;25.00;42.20
41220;DHT22;26951;47.338;9.196;2023-08-17T13:18:48;25.00;43.20
41220;DHT22;26951;47.338;9.196;2023-08-17T13:21:32;25.00;44.30
41220;DHT22;26951;47.338;9.196;2023-08-17T13:24:16;25.00;44.30
41220;DHT22;26951;47.338;9.196;2023-08-17T13:27:00;25.00;44.50
41220;DHT22;26951;47.338;9.196;2023-08-17T13:29:45;24.90;44.50
41220;DHT22;26951;47.338;9.196;2023-08-17T13:32:29;24.90;45.20
41220;DHT22;26951;47.338;9.196;2023-08-17T13:35:14;24.80;46.50
41220;DHT22;26951;47.338;9.196;2023-08-17T13:37:58;24.80;46.60
41220;DHT22;26951;47.338;9.196;2023-08-17T13:40:42;24.70;47.50
41220;DHT22;26951;47.338;9.196;2023-08-17T13:43:26;24.60;50.60
41220;DHT22;26951;47.338;9.196;2023-08-17T13:46:11;24.50;50.70
41220;DHT22;26951;47.338;9.196;2023-08-17T13:48:56;24.50;52.00
41220;DHT22;26951;47.338;9.196;2023-08-17T13:51:40;24.50;51.50
41220;DHT22;26951;47.338;9.196;2023-08-17T13:54:24;24.50;51.10
41220;DHT22;26951;47.338;9.196;2023-08-17T13:57:08;24.40;50.40
41220;DHT22;26951;47.338;9.196;2023-08-17T13:59:52;24.40;52.10
41220;DHT22;26951;47.338;9.196;2023-08-17T14:02:37;24.30;52.80
41220;DHT22;26951;47.338;9.196;2023-08-17T14:05:21;24.20;51.90
41220;DHT22;26951;47.338;9.196;2023-08-17T14:08:05;24.20;52.00
41220;DHT22;26951;47.338;9.196;2023-08-17T14:10:50;24.20;52.60
41220;DHT22;26951;47.338;9.196;2023-08-17T14:13:35;24.20;53.20
41220;DHT22;26951;47.338;9.196;2023-08-17T14:16:20;24.10;53.50
41220;DHT22;26951;47.338;9.196;2023-08-17T14:19:04;24.00;53.10
41220;DHT22;26951;47.338;9.196;2023-08-17T14:21:48;23.90;51.50
41220;DHT22;26951;47.338;9.196;2023-08-17T14:24:33;23.90;50.30
41220;DHT22;26951;47.338;9.196;2023-08-17T14:27:17;23.90;50.50
41220;DHT22;26951;47.338;9.196;2023-08-17T14:30:01;23.80;48.90
41220;DHT22;26951;47.338;9.196;2023-08-17T14:32:46;23.80;48.10
41220;DHT22;26951;47.338;9.196;2023-08-17T14:35:30;23.70;49.50
41220;DHT22;26951;47.338;9.196;2023-08-17T14:38:14;23.80;51.30
41220;DHT22;26951;47.338;9.196;2023-08-17T14:40:58;23.70;49.80
41220;DHT22;26951;47.338;9.196;2023-08-17T14:43:42;23.60;49.40
41220;DHT22;26951;47.338;9.196;2023-08-17T14:46:26;23.60;49.40
41220;DHT22;26951;47.338;9.196;2023-08-17T14:49:11;23.50;48.70
41220;DHT22;26951;47.338;9.196;2023-08-17T14:51:55;23.50;47.30
41220;DHT22;26951;47.338;9.196;2023-08-17T14:54:39;23.50;46.80
41220;DHT22;26951;47.338;9.196;2023-08-17T14:57:23;23.50;46.10
41220;DHT22;26951;47.338;9.196;2023-08-17T15:00:07;23.40;43.50
41220;DHT22;26951;47.338;9.196;2023-08-17T15:02:58;23.40;47.90
41220;DHT22;26951;47.338;9.196;2023-08-17T15:05:42;23.40;47.00
41220;DHT22;26951;47.338;9.196;2023-08-17T15:08:26;23.50;48.90
41220;DHT22;26951;47.338;9.196;2023-08-17T15:11:11;23.50;48.00
41220;DHT22;26951;47.338;9.196;2023-08-17T15:13:55;23.50;49.30
41220;DHT22;26951;47.338;9.196;2023-08-17T15:16:39;23.50;46.60
41220;DHT22;26951;47.338;9.196;2023-08-17T15:19:23;23.40;47.40
41220;DHT22;26951;47.338;9.196;2023-08-17T15:22:07;23.40;48.00
41220;DHT22;26951;47.338;9.196;2023-08-17T15:24:52;23.40;48.60
41220;DHT22;26951;47.338;9.196;2023-08-17T15:27:36;23.40;49.80
41220;DHT22;26951;47.338;9.196;2023-08-17T15:30:20;23.40;49.90
41220;DHT22;26951;47.338;9.196;2023-08-17T15:33:05;23.40;49.30
41220;DHT22;26951;47.338;9.196;2023-08-17T15:35:48;23.40;49.70
41220;DHT22;26951;47.338;9.196;2023-08-17T15:38:33;23.40;48.40
41220;DHT22;26951;47.338;9.196;2023-08-17T15:41:18;23.40;48.70
41220;DHT22;26951;47.338;9.196;2023-08-17T15:44:02;23.30;46.00
41220;DHT22;26951;47.338;9.196;2023-08-17T15:46:46;23.30;46.90
41220;DHT22;26951;47.338;9.196;2023-08-17T15:49:30;23.30;46.40
41220;DHT22;26951;47.338;9.196;2023-08-17T15:52:14;23.30;49.10
41220;DHT22;26951;47.338;9.196;2023-08-17T15:54:59;23.20;47.20
41220;DHT22;26951;47.338;9.196;2023-08-17T15:57:43;23.20;46.20
41220;DHT22;26951;47.338;9.196;2023-08-17T16:00:27;23.10;48.70
41220;DHT22;26951;47.338;9.196;2023-08-17T16:03:13;23.10;48.90
41220;DHT22;26951;47.338;9.196;2023-08-17T16:05:57;23.10;47.90
41220;DHT22;26951;47.338;9.196;2023-08-17T16:08:42;23.00;47.40
41220;DHT22;26951;47.338;9.196;2023-08-17T16:11:26;23.00;46.70
41220;DHT22;26951;47.338;9.196;2023-08-17T16:14:11;23.00;45.70
41220;DHT22;26951;47.338;9.196;2023-08-17T16:16:55;23.00;42.00
41220;DHT22;26951;47.338;9.196;2023-08-17T16:19:39;23.00;41.70
41220;DHT22;26951;47.338;9.196;2023-08-17T16:22:23;23.00;42.40
41220;DHT22;26951;47.338;9.196;2023-08-17T16:25:07;23.00;43.50
41220;DHT22;26951;47.338;9.196;2023-08-17T16:27:51;23.00;42.80
41220;DHT22;26951;47.338;9.196;2023-08-17T16:30:36;22.90;43.50
41220;DHT22;26951;47.338;9.196;2023-08-17T16:33:21;22.90;43.10
41220;DHT22;26951;47.338;9.196;2023-08-17T16:36:05;22.90;42.60
41220;DHT22;26951;47.338;9.196;2023-08-17T16:38:49;22.90;41.60
41220;DHT22;26951;47.338;9.196;2023-08-17T16:41:33;23.00;40.10
41220;DHT22;26951;47.338;9.196;2023-08-17T16:44:18;23.00;40.00
41220;DHT22;26951;47.338;9.196;2023-08-17T16:47:03;23.10;43.40
41220;DHT22;26951;47.338;9.196;2023-08-17T16:49:47;23.20;42.90
41220;DHT22;26951;47.338;9.196;2023-08-17T16:52:31;23.20;41.80
41220;DHT22;26951;47.338;9.196;2023-08-17T16:55:16;23.30;41.70
41220;DHT22;26951;47.338;9.196;2023-08-17T16:58:01;23.30;39.50
41220;DHT22;26951;47.338;9.196;2023-08-17T17:00:45;23.30;38.60
41220;DHT22;26951;47.338;9.196;2023-08-17T17:03:29;23.30;39.60
41220;DHT22;26951;47.338;9.196;2023-08-17T17:06:14;23.30;36.40
41220;DHT22;26951;47.338;9.196;2023-08-17T17:08:58;23.30;35.80
41220;DHT22;26951;47.338;9.196;2023-08-17T17:11:42;23.30;38.50
41220;DHT22;26951;47.338;9.196;2023-08-17T17:14:26;23.30;38.70
41220;DHT22;26951;47.338;9.196;2023-08-17T17:17:10;23.30;41.10
41220;DHT22;26951;47.338;9.196;2023-08-17T17:19:54;23.30;42.00
41220;DHT22;26951;47.338;9.196;2023-08-17T17:22:39;23.30;42.90
41220;DHT22;26951;47.338;9.196;2023-08-17T17:25:23;23.20;44.30
41220;DHT22;26951;47.338;9.196;2023-08-17T17:28:07;23.20;45.00